createdAt,value
2022-11-29T00:00:37.521Z,100935.37
2022-11-29T00:03:40.021Z,100938.22
2022-11-29T00:06:42.205Z,100936.16
2022-11-29T00:09:44.684Z,100935.22
2022-11-29T00:12:48.271Z,100926.56
2022-11-29T00:15:50.778Z,100917.78
2022-11-29T00:18:53.019Z,100915.41
2022-11-29T00:21:55.692Z,100917.25
2022-11-29T00:24:57.870Z,100903.47
2022-11-29T00:28:00.470Z,100907.41
2022-11-29T00:31:16.965Z,100904.72
2022-11-29T00:34:19.674Z,100899.13
2022-11-29T00:37:21.891Z,100896.69
2022-11-29T00:40:24.587Z,100901.00
2022-11-29T00:43:26.779Z,100894.06
2022-11-29T00:46:29.343Z,100894.37
2022-11-29T00:49:31.567Z,100893.06
2022-11-29T00:52:34.059Z,100897.03
2022-11-29T00:55:36.427Z,100893.69
2022-11-29T00:58:38.992Z,100883.41
2022-11-29T01:01:41.327Z,100889.03
2022-11-29T01:04:44.178Z,100888.19
2022-11-29T01:07:46.684Z,100887.06
2022-11-29T01:10:49.279Z,100894.59
2022-11-29T01:13:57.123Z,100888.19
2022-11-29T01:16:59.763Z,100885.22
2022-11-29T01:20:02.984Z,100885.47
2022-11-29T01:23:05.685Z,100889.81
2022-11-29T01:26:15.082Z,100889.72
2022-11-29T01:29:17.604Z,100888.81
2022-11-29T01:32:19.803Z,100884.81
2022-11-29T01:35:22.378Z,100881.16
2022-11-29T01:38:24.640Z,100872.88
2022-11-29T01:41:31.068Z,100877.34
2022-11-29T01:44:33.133Z,100871.13
2022-11-29T01:47:41.426Z,100864.59
2022-11-29T01:50:43.892Z,100873.63
2022-11-29T01:53:46.565Z,100880.44
2022-11-29T01:56:51.902Z,100873.53
2022-11-29T02:00:00.662Z,100877.13
2022-11-29T02:03:10.970Z,100882.47
2022-11-29T02:06:14.664Z,100869.34
2022-11-29T02:09:19.850Z,100873.22
2022-11-29T02:12:40.803Z,100878.56
2022-11-29T02:15:50.150Z,100876.12
2022-11-29T02:19:32.752Z,100883.97
2022-11-29T02:22:44.073Z,100890.16
2022-11-29T02:25:58.819Z,100891.19
2022-11-29T02:30:05.010Z,100887.34
2022-11-29T02:33:28.474Z,100888.13
2022-11-29T02:36:33.258Z,100902.47
2022-11-29T02:40:00.794Z,100903.53
2022-11-29T02:43:30.616Z,100892.28
2022-11-29T02:46:57.328Z,100899.13
2022-11-29T02:50:05.399Z,100905.34
2022-11-29T02:53:20.201Z,100892.91
2022-11-29T02:56:48.507Z,100893.12
2022-11-29T03:00:01.192Z,100888.78
2022-11-29T03:03:09.465Z,100890.47
2022-11-29T03:06:17.921Z,100895.50
2022-11-29T03:09:40.358Z,100888.63
2022-11-29T03:12:49.439Z,100890.38
2022-11-29T03:15:59.112Z,100887.87
2022-11-29T03:19:19.871Z,100900.97
2022-11-29T03:23:07.553Z,100899.00
2022-11-29T03:26:38.131Z,100904.41
2022-11-29T03:29:48.140Z,100898.31
2022-11-29T03:32:56.708Z,100897.63
2022-11-29T03:36:18.668Z,100897.66
2022-11-29T03:39:30.533Z,100903.16
2022-11-29T03:42:44.727Z,100896.47
2022-11-29T03:46:11.341Z,100896.81
2022-11-29T03:49:23.328Z,100902.66
2022-11-29T03:52:38.632Z,100904.81
2022-11-29T03:55:53.238Z,100905.66
2022-11-29T03:59:04.850Z,100910.91
2022-11-29T04:02:37.958Z,100914.81
2022-11-29T04:05:59.561Z,100912.72
2022-11-29T04:09:26.086Z,100912.03
2022-11-29T04:12:47.363Z,100918.37
2022-11-29T04:16:40.998Z,100921.37
2022-11-29T04:20:09.842Z,100917.19
2022-11-29T04:23:30.135Z,100918.16
2022-11-29T04:26:51.431Z,100927.47
2022-11-29T04:30:17.893Z,100926.44
2022-11-29T04:33:52.821Z,100925.81
2022-11-29T04:37:23.364Z,100923.97
2022-11-29T04:40:50.202Z,100925.25
2022-11-29T04:43:58.139Z,100927.44
2022-11-29T04:47:07.716Z,100922.16
2022-11-29T04:50:26.870Z,100926.38
2022-11-29T04:53:54.040Z,100930.97
2022-11-29T04:57:19.459Z,100939.56
2022-11-29T05:00:39.371Z,100946.22
2022-11-29T05:03:55.456Z,100945.50
2022-11-29T05:06:59.914Z,100955.72
2022-11-29T05:10:28.243Z,100951.38
2022-11-29T05:13:59.210Z,100952.25
2022-11-29T05:17:33.235Z,100957.47
2022-11-29T05:20:48.979Z,100956.75
2022-11-29T05:24:06.517Z,100962.41
2022-11-29T05:27:23.185Z,100958.16
2022-11-29T05:30:40.427Z,100963.69
2022-11-29T05:33:51.224Z,100955.19
2022-11-29T05:37:11.399Z,100956.34
2022-11-29T05:40:32.725Z,100965.00
2022-11-29T05:43:38.019Z,100970.97
2022-11-29T05:46:58.605Z,100965.78
2022-11-29T05:50:27.326Z,100966.81
2022-11-29T05:53:48.666Z,100972.41
2022-11-29T05:57:06.957Z,100967.28
2022-11-29T06:00:12.879Z,100976.56
2022-11-29T06:03:35.076Z,100971.50
2022-11-29T06:06:45.036Z,100975.78
2022-11-29T06:10:11.890Z,100973.06
2022-11-29T06:13:54.547Z,100981.38
2022-11-29T06:17:38.788Z,100983.72
2022-11-29T06:21:17.024Z,100986.81
2022-11-29T06:24:45.418Z,100989.22
2022-11-29T06:28:07.117Z,100992.59
2022-11-29T06:31:32.059Z,100989.75
2022-11-29T06:34:50.827Z,100986.06
2022-11-29T06:37:58.470Z,100990.63
2022-11-29T06:41:02.321Z,100999.00
2022-11-29T06:44:05.693Z,100991.16
2022-11-29T06:47:23.678Z,100996.87
2022-11-29T06:50:38.427Z,100995.06
2022-11-29T06:54:03.272Z,100999.09
2022-11-29T06:57:17.561Z,101007.81
2022-11-29T07:00:23.741Z,101005.44
2022-11-29T07:03:48.026Z,101006.00
2022-11-29T07:06:51.407Z,100998.09
2022-11-29T07:10:00.350Z,101002.78
2022-11-29T07:13:06.126Z,101002.63
2022-11-29T07:16:28.336Z,101012.28
2022-11-29T07:19:52.386Z,101006.22
2022-11-29T07:23:29.439Z,101014.47
2022-11-29T07:26:48.140Z,101009.66
2022-11-29T07:30:01.885Z,101008.91
2022-11-29T07:33:34.235Z,101011.00
2022-11-29T07:36:59.050Z,101012.66
2022-11-29T07:40:19.644Z,101013.31
2022-11-29T07:43:43.454Z,101022.63
2022-11-29T07:46:45.708Z,101019.63
2022-11-29T07:49:48.186Z,101019.63
2022-11-29T07:52:50.489Z,101021.78
2022-11-29T07:55:53.091Z,101025.59
2022-11-29T07:58:55.249Z,101022.72
2022-11-29T08:01:58.793Z,101024.50
2022-11-29T08:05:04.739Z,101032.12
2022-11-29T08:08:08.681Z,101022.34
2022-11-29T08:11:12.406Z,101022.03
2022-11-29T08:14:14.822Z,101016.78
2022-11-29T08:17:18.584Z,101020.50
2022-11-29T08:20:20.726Z,101020.28
2022-11-29T08:23:23.241Z,101020.37
2022-11-29T08:26:31.232Z,101023.78
2022-11-29T08:29:34.257Z,101025.84
2022-11-29T08:32:36.386Z,101027.34
2022-11-29T08:35:39.984Z,101028.38
2022-11-29T08:38:42.433Z,101021.75
2022-11-29T08:41:45.132Z,101024.44
2022-11-29T08:44:48.121Z,101027.78
2022-11-29T08:47:50.831Z,101025.41
2022-11-29T08:50:55.344Z,101027.09
2022-11-29T08:53:57.740Z,101023.59
2022-11-29T08:57:37.885Z,101019.38
2022-11-29T09:00:25.043Z,101030.81
2022-11-29T09:03:46.044Z,101021.03
2022-11-29T09:06:49.692Z,101026.13
2022-11-29T09:09:51.938Z,101024.28
2022-11-29T09:12:55.052Z,101031.62
2022-11-29T09:15:57.583Z,101015.53
2022-11-29T09:19:00.214Z,101012.47
2022-11-29T09:22:03.618Z,101015.31
2022-11-29T09:25:06.715Z,101015.31
2022-11-29T09:28:09.105Z,101008.00
2022-11-29T09:31:14.561Z,101008.62
2022-11-29T09:34:18.814Z,101006.94
2022-11-29T09:37:21.395Z,101002.81
2022-11-29T09:40:32.025Z,101000.66
2022-11-29T09:43:55.027Z,101004.25
2022-11-29T09:46:58.932Z,101001.06
2022-11-29T09:50:21.274Z,101006.03
2022-11-29T09:54:00.871Z,101001.91
2022-11-29T09:57:10.622Z,100996.16
2022-11-29T10:00:20.550Z,100992.28
2022-11-29T10:03:46.479Z,100993.56
2022-11-29T10:06:58.444Z,100989.34
2022-11-29T10:10:08.409Z,100986.37
2022-11-29T10:13:32.296Z,100977.44
2022-11-29T10:16:58.693Z,100977.25
2022-11-29T10:20:10.216Z,100973.56
2022-11-29T10:23:31.052Z,100976.19
2022-11-29T10:26:35.330Z,100975.84
2022-11-29T10:29:38.441Z,100969.34
2022-11-29T10:32:42.446Z,100965.87
2022-11-29T10:35:47.627Z,100968.91
2022-11-29T10:38:51.399Z,100963.56
2022-11-29T10:42:02.517Z,100960.34
2022-11-29T10:45:31.017Z,100963.78
2022-11-29T10:48:34.200Z,100971.31
2022-11-29T10:51:36.671Z,100968.28
2022-11-29T10:54:42.384Z,100964.84
2022-11-29T10:58:13.148Z,100953.50
2022-11-29T11:01:16.836Z,100957.34
2022-11-29T11:04:35.182Z,100953.16
2022-11-29T11:07:38.954Z,100955.19
2022-11-29T11:10:41.450Z,100956.50
2022-11-29T11:13:58.100Z,100959.41
2022-11-29T11:17:22.511Z,100956.81
2022-11-29T11:20:29.108Z,100951.81
2022-11-29T11:23:36.369Z,100943.72
2022-11-29T11:26:45.353Z,100958.69
2022-11-29T11:29:47.532Z,100960.03
2022-11-29T11:33:19.408Z,100962.87
2022-11-29T11:36:27.390Z,100947.72
2022-11-29T11:39:32.449Z,100960.47
2022-11-29T11:42:40.342Z,100955.06
2022-11-29T11:45:52.039Z,100957.50
2022-11-29T11:48:54.356Z,100962.13
2022-11-29T11:52:01.221Z,100959.84
2022-11-29T11:55:25.305Z,100961.22
2022-11-29T11:58:44.579Z,100961.31
2022-11-29T12:01:47.192Z,100956.66
2022-11-29T12:04:49.701Z,100946.97
2022-11-29T12:08:07.918Z,100958.75
2022-11-29T12:11:14.681Z,100949.16
2022-11-29T12:14:32.584Z,100949.94
2022-11-29T12:17:38.431Z,100951.06
2022-11-29T12:21:07.184Z,100951.31
2022-11-29T12:24:26.265Z,100950.22
2022-11-29T12:27:29.216Z,100948.53
2022-11-29T12:30:32.050Z,100942.88
2022-11-29T12:34:07.707Z,100941.34
2022-11-29T12:37:16.679Z,100940.56
2022-11-29T12:40:36.768Z,100940.62
2022-11-29T12:44:11.279Z,100938.78
2022-11-29T12:47:51.538Z,100932.59
2022-11-29T12:51:33.513Z,100939.31
2022-11-29T12:54:35.568Z,100932.37
2022-11-29T12:57:45.988Z,100933.94
2022-11-29T13:01:26.305Z,100936.38
2022-11-29T13:04:56.514Z,100927.12
2022-11-29T13:08:46.680Z,100921.16
2022-11-29T13:11:58.365Z,100923.84
2022-11-29T13:15:23.981Z,100928.16
2022-11-29T13:18:45.146Z,100933.78
2022-11-29T13:21:59.518Z,100937.31
2022-11-29T13:25:13.143Z,100938.63
2022-11-29T13:28:24.940Z,100934.06
2022-11-29T13:31:27.933Z,100929.44
2022-11-29T13:34:41.579Z,100931.28
2022-11-29T13:38:03.289Z,100937.22
2022-11-29T13:41:11.232Z,100937.66
2022-11-29T13:44:43.582Z,100931.66
2022-11-29T13:47:49.929Z,100935.47
2022-11-29T13:50:52.505Z,100941.72
2022-11-29T13:53:56.703Z,100939.69
2022-11-29T13:57:05.337Z,100940.69
2022-11-29T14:00:27.327Z,100940.34
2022-11-29T14:03:38.694Z,100944.09
2022-11-29T14:06:41.299Z,100942.50
2022-11-29T14:09:51.332Z,100945.66
2022-11-29T14:12:56.774Z,100949.19
2022-11-29T14:16:03.447Z,100941.84
2022-11-29T14:19:08.411Z,100939.91
2022-11-29T14:22:20.807Z,100941.94
2022-11-29T14:25:50.692Z,100937.59
2022-11-29T14:28:47.707Z,100941.69
2022-11-29T14:31:53.324Z,100934.09
2022-11-29T14:35:04.711Z,100940.94
2022-11-29T14:38:35.010Z,100937.41
2022-11-29T14:42:01.899Z,100930.75
2022-11-29T14:45:22.763Z,100935.16
2022-11-29T14:48:31.547Z,100930.25
2022-11-29T14:51:34.420Z,100928.16
2022-11-29T14:54:57.039Z,100939.69
2022-11-29T14:58:03.723Z,100934.91
2022-11-29T15:01:10.694Z,100939.28
2022-11-29T15:04:13.553Z,100939.25
2022-11-29T15:07:19.394Z,100939.97
2022-11-29T15:10:27.084Z,100939.28
2022-11-29T15:13:32.891Z,100936.78
2022-11-29T15:16:52.223Z,100929.91
2022-11-29T15:20:06.662Z,100933.62
2022-11-29T15:23:17.754Z,100929.78
2022-11-29T15:26:21.130Z,100932.31
2022-11-29T15:29:23.419Z,100929.63
2022-11-29T15:32:30.854Z,100928.31
2022-11-29T15:35:34.485Z,100926.84
2022-11-29T15:38:45.755Z,100928.25
2022-11-29T15:41:47.909Z,100933.06
2022-11-29T15:44:52.884Z,100918.59
2022-11-29T15:47:55.433Z,100924.75
2022-11-29T15:51:03.690Z,100923.66
2022-11-29T15:54:16.608Z,100916.72
2022-11-29T15:57:26.468Z,100916.09
2022-11-29T16:00:31.407Z,100927.31
2022-11-29T16:03:37.796Z,100936.66
2022-11-29T16:06:42.179Z,100939.75
2022-11-29T16:09:51.712Z,100936.50
2022-11-29T16:12:59.166Z,100950.00
2022-11-29T16:16:12.695Z,100946.31
2022-11-29T16:19:23.253Z,100945.66
2022-11-29T16:22:25.599Z,100940.06
2022-11-29T16:25:28.052Z,100949.44
2022-11-29T16:28:37.152Z,100940.72
2022-11-29T16:31:39.450Z,100947.19
2022-11-29T16:34:44.274Z,100952.56
2022-11-29T16:37:47.307Z,100947.91
2022-11-29T16:41:21.516Z,100949.06
2022-11-29T16:44:47.013Z,100965.03
2022-11-29T16:47:57.834Z,100977.28
2022-11-29T16:51:16.032Z,100965.53
2022-11-29T16:54:24.391Z,100979.13
2022-11-29T16:57:28.759Z,100983.38
2022-11-29T17:00:33.391Z,100976.53
2022-11-29T17:03:35.717Z,100981.78
2022-11-29T17:06:38.185Z,100986.16
2022-11-29T17:09:40.333Z,100990.19
2022-11-29T17:12:47.758Z,100986.41
2022-11-29T17:15:50.408Z,100985.84
2022-11-29T17:18:53.705Z,100993.84
2022-11-29T17:21:55.919Z,100989.78
2022-11-29T17:24:58.312Z,100994.88
2022-11-29T17:28:01.094Z,100987.19
2022-11-29T17:31:13.799Z,100987.91
2022-11-29T17:34:16.700Z,100991.78
2022-11-29T17:37:19.161Z,100994.56
2022-11-29T17:40:21.251Z,100996.78
2022-11-29T17:43:23.656Z,100989.87
2022-11-29T17:46:31.781Z,100987.13
2022-11-29T17:49:34.515Z,100984.50
2022-11-29T17:52:36.988Z,100994.09
2022-11-29T17:55:39.363Z,101001.31
2022-11-29T17:58:41.877Z,100999.91
2022-11-29T18:01:49.458Z,100992.78
2022-11-29T18:04:52.174Z,100995.38
2022-11-29T18:08:00.348Z,100979.03
2022-11-29T18:11:08.085Z,100987.28
2022-11-29T18:14:11.999Z,100988.09
2022-11-29T18:17:14.408Z,100992.66
2022-11-29T18:20:16.569Z,100984.00
2022-11-29T18:23:19.033Z,100987.62
2022-11-29T18:26:25.961Z,100984.34
2022-11-29T18:29:31.514Z,100983.41
2022-11-29T18:32:38.161Z,100994.56
2022-11-29T18:35:40.564Z,101002.47
2022-11-29T18:38:44.497Z,101005.09
2022-11-29T18:41:49.304Z,101008.91
2022-11-29T18:44:53.596Z,100999.94
2022-11-29T18:47:59.846Z,101005.69
2022-11-29T18:51:07.153Z,101001.00
2022-11-29T18:54:10.193Z,100997.94
2022-11-29T18:57:12.320Z,101007.38
2022-11-29T19:00:15.379Z,101008.03
2022-11-29T19:03:17.508Z,101004.25
2022-11-29T19:06:22.434Z,101001.19
2022-11-29T19:09:24.748Z,101004.94
2022-11-29T19:12:27.124Z,100994.94
2022-11-29T19:15:29.185Z,100987.81
2022-11-29T19:18:31.764Z,101000.38
2022-11-29T19:21:34.588Z,100998.69
2022-11-29T19:24:36.996Z,101000.47
2022-11-29T19:27:40.084Z,101003.66
2022-11-29T19:30:42.893Z,101004.16
2022-11-29T19:33:45.884Z,101008.69
2022-11-29T19:36:48.259Z,101007.59
2022-11-29T19:39:50.312Z,101013.34
2022-11-29T19:42:52.645Z,101012.91
2022-11-29T19:45:54.771Z,101005.94
2022-11-29T19:48:58.530Z,101012.56
2022-11-29T19:52:00.629Z,101002.34
2022-11-29T19:55:03.149Z,100995.28
2022-11-29T19:58:05.478Z,101009.09
2022-11-29T20:01:13.666Z,101001.66
2022-11-29T20:04:17.465Z,100999.66
2022-11-29T20:07:20.699Z,100998.63
2022-11-29T20:10:23.551Z,100998.88
2022-11-29T20:13:25.744Z,100997.50
2022-11-29T20:16:31.042Z,100991.16
2022-11-29T20:19:33.205Z,100991.06
2022-11-29T20:22:35.606Z,100985.13
2022-11-29T20:25:37.841Z,100988.12
2022-11-29T20:28:40.707Z,100994.19
2022-11-29T20:31:49.420Z,100989.09
2022-11-29T20:34:52.499Z,100983.47
2022-11-29T20:38:36.170Z,100984.44
2022-11-29T20:41:53.429Z,100998.53
2022-11-29T20:44:58.103Z,100993.72
2022-11-29T20:48:17.707Z,100987.69
2022-11-29T20:51:24.494Z,100991.06
2022-11-29T20:54:26.857Z,100992.06
2022-11-29T20:57:28.938Z,100982.47
2022-11-29T21:00:31.461Z,100981.09
2022-11-29T21:03:33.936Z,100987.13
2022-11-29T21:06:37.967Z,100981.84
2022-11-29T21:09:40.098Z,100990.66
2022-11-29T21:12:45.524Z,100991.34
2022-11-29T21:15:48.523Z,100988.63
2022-11-29T21:18:51.080Z,101000.00
2022-11-29T21:22:14.245Z,100984.38
2022-11-29T21:25:31.825Z,100989.78
2022-11-29T21:28:50.505Z,100990.50
2022-11-29T21:31:54.155Z,100993.09
2022-11-29T21:34:56.327Z,100999.84
2022-11-29T21:38:01.571Z,100994.41
2022-11-29T21:41:03.704Z,100995.59
2022-11-29T21:44:07.789Z,100989.56
2022-11-29T21:47:10.378Z,100992.75
2022-11-29T21:50:13.722Z,100998.66
2022-11-29T21:53:15.846Z,101002.56
2022-11-29T21:56:18.264Z,100996.19
2022-11-29T21:59:20.560Z,101002.91
2022-11-29T22:02:23.227Z,101004.31
2022-11-29T22:05:25.689Z,101002.28
2022-11-29T22:08:27.826Z,100996.50
2022-11-29T22:11:34.260Z,100997.44
2022-11-29T22:14:36.634Z,100986.97
2022-11-29T22:17:39.083Z,100988.75
2022-11-29T22:20:41.157Z,100988.84
2022-11-29T22:23:43.587Z,100995.69
2022-11-29T22:26:46.395Z,100995.16
2022-11-29T22:29:48.914Z,100993.81
2022-11-29T22:32:51.102Z,100989.56
2022-11-29T22:35:53.923Z,100989.47
2022-11-29T22:38:55.981Z,100985.09
2022-11-29T22:41:58.353Z,100990.22
2022-11-29T22:45:02.103Z,100980.81
2022-11-29T22:48:04.733Z,100980.09
2022-11-29T22:51:06.849Z,100982.44
2022-11-29T22:54:11.302Z,100974.47
2022-11-29T22:57:13.415Z,100968.75
2022-11-29T23:00:15.910Z,100974.06
2022-11-29T23:03:18.038Z,100970.00
2022-11-29T23:06:25.675Z,100966.34
2022-11-29T23:09:29.841Z,100968.03
2022-11-29T23:12:32.353Z,100964.41
2022-11-29T23:15:34.512Z,100963.69
2022-11-29T23:18:38.455Z,100953.09
2022-11-29T23:21:41.331Z,100955.22
2022-11-29T23:24:43.871Z,100960.72
2022-11-29T23:27:46.238Z,100960.91
2022-11-29T23:30:48.657Z,100965.81
2022-11-29T23:33:51.188Z,100954.47
2022-11-29T23:36:53.603Z,100956.13
2022-11-29T23:39:55.676Z,100961.66
2022-11-29T23:42:58.025Z,100960.06
2022-11-29T23:46:04.845Z,100960.69
2022-11-29T23:49:07.440Z,100962.28
2022-11-29T23:52:09.523Z,100954.84
2022-11-29T23:55:14.406Z,100958.28
2022-11-29T23:58:16.523Z,100963.47
